createdAt,value
2022-08-11T00:00:02.589Z,18.40
2022-08-11T00:02:34.867Z,18.40
2022-08-11T00:05:06.247Z,18.30
2022-08-11T00:07:34.507Z,18.20
2022-08-11T00:10:02.417Z,18.20
2022-08-11T00:12:30.029Z,18.30
2022-08-11T00:15:01.936Z,18.30
2022-08-11T00:17:32.766Z,18.20
2022-08-11T00:20:16.206Z,18.20
2022-08-11T00:22:46.277Z,18.10
2022-08-11T00:25:19.197Z,18.10
2022-08-11T00:27:47.581Z,18.00
2022-08-11T00:30:17.809Z,18.00
2022-08-11T00:32:54.764Z,17.90
2022-08-11T00:35:54.808Z,17.90
2022-08-11T00:38:16.292Z,17.80
2022-08-11T00:40:51.796Z,17.80
2022-08-11T00:43:55.850Z,17.80
2022-08-11T00:46:25.372Z,17.90
2022-08-11T00:49:25.971Z,18.00
2022-08-11T00:52:30.611Z,17.90
2022-08-11T00:55:23.392Z,17.90
2022-08-11T00:58:23.602Z,17.80
2022-08-11T01:01:08.086Z,17.70
2022-08-11T01:04:21.340Z,17.60
2022-08-11T01:08:01.905Z,17.60
2022-08-11T01:10:30.649Z,17.60
2022-08-11T01:13:16.868Z,17.50
2022-08-11T01:16:05.503Z,17.50
2022-08-11T01:19:02.787Z,17.50
2022-08-11T01:22:04.497Z,17.40
2022-08-11T01:24:51.943Z,17.40
2022-08-11T01:27:37.223Z,17.30
2022-08-11T01:30:19.440Z,17.30
2022-08-11T01:33:25.771Z,17.20
2022-08-11T01:36:16.559Z,17.20
2022-08-11T01:38:57.658Z,17.20
2022-08-11T01:42:05.659Z,17.10
2022-08-11T01:44:45.420Z,17.10
2022-08-11T01:47:54.373Z,17.00
2022-08-11T01:50:44.409Z,17.00
2022-08-11T01:53:35.740Z,17.00
2022-08-11T01:56:23.327Z,17.00
2022-08-11T01:59:09.534Z,17.00
2022-08-11T02:01:50.951Z,17.00
2022-08-11T02:05:05.057Z,17.00
2022-08-11T02:08:11.631Z,17.00
2022-08-11T02:11:15.893Z,17.00
2022-08-11T02:13:49.604Z,17.00
2022-08-11T02:16:55.645Z,16.90
2022-08-11T02:19:59.228Z,16.80
2022-08-11T02:23:01.077Z,16.80
2022-08-11T02:25:51.861Z,16.90
2022-08-11T02:28:52.555Z,16.80
2022-08-11T02:32:24.981Z,16.80
2022-08-11T02:34:59.619Z,16.70
2022-08-11T02:37:33.091Z,16.70
2022-08-11T02:40:02.537Z,16.60
2022-08-11T02:42:51.611Z,16.60
2022-08-11T02:45:30.113Z,16.50
2022-08-11T02:48:39.449Z,16.40
2022-08-11T02:51:33.574Z,16.40
2022-08-11T02:54:21.253Z,16.40
2022-08-11T02:57:12.424Z,16.30
2022-08-11T03:00:00.751Z,16.40
2022-08-11T03:02:51.054Z,16.30
2022-08-11T03:05:33.616Z,16.30
2022-08-11T03:08:30.168Z,16.30
2022-08-11T03:11:37.835Z,16.20
2022-08-11T03:14:26.619Z,16.20
2022-08-11T03:17:09.148Z,16.20
2022-08-11T03:20:03.808Z,16.10
2022-08-11T03:22:38.890Z,16.10
2022-08-11T03:25:20.281Z,16.10
2022-08-11T03:27:50.040Z,16.00
2022-08-11T03:30:34.800Z,16.00
2022-08-11T03:33:50.524Z,16.10
2022-08-11T03:37:16.571Z,16.10
2022-08-11T03:39:56.455Z,16.10
2022-08-11T03:42:41.241Z,16.10
2022-08-11T03:45:37.433Z,16.10
2022-08-11T03:48:25.066Z,16.20
2022-08-11T03:51:15.285Z,16.30
2022-08-11T03:54:00.670Z,16.30
2022-08-11T03:57:04.297Z,16.30
2022-08-11T03:59:51.006Z,16.30
2022-08-11T04:02:55.156Z,16.30
2022-08-11T04:06:13.182Z,16.30
2022-08-11T04:09:07.699Z,16.30
2022-08-11T04:11:54.880Z,16.20
2022-08-11T04:14:52.239Z,16.20
2022-08-11T04:17:40.659Z,16.20
2022-08-11T04:20:10.215Z,16.10
2022-08-11T04:22:55.505Z,16.10
2022-08-11T04:25:33.523Z,16.00
2022-08-11T04:28:50.101Z,16.00
2022-08-11T04:31:49.562Z,16.00
2022-08-11T04:34:45.591Z,16.10
2022-08-11T04:37:34.443Z,16.10
2022-08-11T04:40:29.228Z,16.10
2022-08-11T04:43:23.163Z,16.20
2022-08-11T04:46:20.722Z,16.20
2022-08-11T04:49:33.647Z,16.30
2022-08-11T04:53:01.037Z,16.40
2022-08-11T04:56:13.524Z,16.50
2022-08-11T04:59:28.604Z,16.60
2022-08-11T05:02:40.078Z,16.80
2022-08-11T05:05:33.252Z,16.90
2022-08-11T05:08:50.214Z,17.00
2022-08-11T05:11:31.930Z,17.00
2022-08-11T05:14:32.322Z,17.10
2022-08-11T05:17:25.306Z,17.30
2022-08-11T05:20:10.847Z,17.40
2022-08-11T05:23:04.337Z,17.60
2022-08-11T05:26:43.960Z,17.70
2022-08-11T05:29:08.255Z,17.90
2022-08-11T05:32:14.503Z,18.10
2022-08-11T05:34:55.801Z,18.30
2022-08-11T05:37:38.522Z,18.80
2022-08-11T05:40:33.169Z,19.50
2022-08-11T05:43:30.439Z,20.10
2022-08-11T05:46:25.157Z,20.30
2022-08-11T05:49:13.011Z,20.20
2022-08-11T05:52:05.890Z,20.40
2022-08-11T05:54:59.916Z,21.00
2022-08-11T05:57:48.637Z,21.80
2022-08-11T06:00:19.393Z,22.40
2022-08-11T06:02:59.128Z,23.00
2022-08-11T06:05:37.357Z,23.10
2022-08-11T06:08:12.364Z,23.50
2022-08-11T06:10:42.415Z,23.70
2022-08-11T06:13:14.433Z,24.10
2022-08-11T06:15:49.214Z,24.20
2022-08-11T06:18:16.850Z,24.50
2022-08-11T06:20:57.948Z,24.80
2022-08-11T06:23:32.181Z,25.30
2022-08-11T06:26:00.054Z,25.50
2022-08-11T06:28:47.923Z,25.80
2022-08-11T06:31:20.004Z,25.40
2022-08-11T06:34:05.381Z,25.70
2022-08-11T06:36:58.991Z,25.60
2022-08-11T06:39:52.926Z,25.70
2022-08-11T06:42:48.159Z,26.20
2022-08-11T06:45:42.087Z,26.50
2022-08-11T06:48:16.979Z,26.70
2022-08-11T06:51:08.979Z,27.00
2022-08-11T06:53:39.092Z,27.30
2022-08-11T06:56:26.109Z,27.40
2022-08-11T06:59:12.530Z,27.40
2022-08-11T07:01:49.337Z,27.20
2022-08-11T07:04:40.158Z,27.50
2022-08-11T07:07:53.384Z,27.60
2022-08-11T07:10:47.542Z,27.60
2022-08-11T07:13:39.338Z,27.90
2022-08-11T07:16:28.319Z,27.90
2022-08-11T07:19:21.669Z,28.20
2022-08-11T07:22:08.098Z,27.90
2022-08-11T07:25:04.900Z,27.60
2022-08-11T07:28:05.029Z,27.30
2022-08-11T07:30:34.437Z,27.50
2022-08-11T07:33:03.000Z,27.80
2022-08-11T07:35:42.436Z,27.90
2022-08-11T07:38:22.240Z,28.30
2022-08-11T07:40:50.857Z,28.10
2022-08-11T07:43:17.804Z,28.10
2022-08-11T07:46:05.003Z,28.10
2022-08-11T07:48:52.998Z,28.20
2022-08-11T07:51:41.645Z,27.40
2022-08-11T07:54:17.204Z,27.40
2022-08-11T07:56:55.024Z,27.80
2022-08-11T08:00:00.208Z,27.90
2022-08-11T08:02:50.104Z,27.70
2022-08-11T08:05:37.151Z,28.10
2022-08-11T08:08:23.861Z,27.90
2022-08-11T08:11:16.357Z,28.10
2022-08-11T08:14:08.322Z,28.30
2022-08-11T08:16:56.426Z,28.50
2022-08-11T08:19:23.620Z,28.50
2022-08-11T08:21:51.122Z,29.20
2022-08-11T08:24:20.166Z,29.40
2022-08-11T08:26:58.510Z,29.70
2022-08-11T08:30:04.066Z,29.70
2022-08-11T08:32:32.582Z,29.70
2022-08-11T08:35:00.553Z,29.60
2022-08-11T08:37:46.722Z,29.60
2022-08-11T08:40:14.730Z,29.60
2022-08-11T08:43:03.773Z,29.80
2022-08-11T08:45:34.747Z,30.10
2022-08-11T08:48:11.033Z,30.20
2022-08-11T08:51:19.543Z,30.20
2022-08-11T08:53:56.342Z,29.90
2022-08-11T08:56:28.220Z,29.50
2022-08-11T08:58:58.788Z,29.20
2022-08-11T09:01:30.870Z,28.30
2022-08-11T09:04:07.109Z,28.60
2022-08-11T09:06:40.299Z,29.00
2022-08-11T09:09:08.916Z,29.40
2022-08-11T09:11:55.829Z,29.30
2022-08-11T09:15:03.640Z,29.30
2022-08-11T09:17:46.558Z,29.20
2022-08-11T09:20:29.310Z,29.60
2022-08-11T09:26:31.006Z,29.90
2022-08-11T09:29:02.216Z,30.10
2022-08-11T09:31:38.684Z,29.70
2022-08-11T09:34:11.314Z,29.50
2022-08-11T09:36:59.722Z,29.50
2022-08-11T09:39:49.920Z,29.20
2022-08-11T09:42:23.378Z,28.80
2022-08-11T09:44:53.197Z,29.00
2022-08-11T09:47:29.567Z,29.10
2022-08-11T09:50:01.555Z,29.20
2022-08-11T09:52:35.733Z,29.70
2022-08-11T09:55:06.293Z,29.60
2022-08-11T09:57:52.377Z,29.50
2022-08-11T10:00:20.813Z,29.30
2022-08-11T10:02:50.325Z,29.70
2022-08-11T10:05:38.259Z,30.60
2022-08-11T10:08:07.305Z,31.00
2022-08-11T10:10:41.238Z,29.90
2022-08-11T10:14:31.296Z,30.40
2022-08-11T10:16:14.596Z,30.40
2022-08-11T10:18:53.737Z,30.40
2022-08-11T10:22:12.467Z,30.70
2022-08-11T10:24:59.940Z,30.80
2022-08-11T10:28:17.729Z,30.50
2022-08-11T10:30:46.731Z,31.20
2022-08-11T10:33:41.730Z,30.50
2022-08-11T10:36:16.423Z,30.70
2022-08-11T10:38:45.839Z,30.70
2022-08-11T10:41:32.501Z,30.90
2022-08-11T10:44:03.048Z,30.60
2022-08-11T10:46:50.342Z,29.80
2022-08-11T10:49:18.819Z,29.90
2022-08-11T10:52:05.337Z,30.20
2022-08-11T10:54:52.832Z,30.30
2022-08-11T10:57:38.983Z,30.20
2022-08-11T11:00:07.239Z,30.20
2022-08-11T11:02:34.859Z,30.50
2022-08-11T11:05:12.865Z,30.60
2022-08-11T11:08:26.971Z,31.20
2022-08-11T11:10:54.286Z,31.30
2022-08-11T11:13:55.121Z,31.40
2022-08-11T11:16:44.469Z,31.70
2022-08-11T11:19:13.039Z,31.80
2022-08-11T11:21:43.044Z,31.70
2022-08-11T11:24:27.238Z,31.90
2022-08-11T11:27:12.261Z,31.00
2022-08-11T11:29:58.907Z,30.30
2022-08-11T11:32:49.997Z,30.10
2022-08-11T11:35:26.561Z,30.20
2022-08-11T11:38:04.792Z,30.90
2022-08-11T11:40:39.788Z,31.40
2022-08-11T11:43:09.585Z,31.80
2022-08-11T11:45:36.815Z,31.50
2022-08-11T11:48:04.169Z,31.60
2022-08-11T11:50:37.443Z,31.60
2022-08-11T11:53:06.756Z,32.30
2022-08-11T11:55:34.133Z,32.20
2022-08-11T11:58:22.270Z,31.30
2022-08-11T12:01:09.321Z,31.20
2022-08-11T12:03:37.869Z,30.80
2022-08-11T12:06:14.186Z,31.50
2022-08-11T12:08:42.745Z,31.90
2022-08-11T12:11:30.857Z,32.40
2022-08-11T12:14:03.077Z,32.30
2022-08-11T12:16:36.568Z,31.90
2022-08-11T12:19:13.505Z,31.70
2022-08-11T12:22:01.021Z,31.40
2022-08-11T12:24:57.997Z,31.10
2022-08-11T12:27:30.776Z,31.50
2022-08-11T12:30:12.395Z,31.20
2022-08-11T12:32:41.357Z,31.30
2022-08-11T12:35:08.764Z,31.40
2022-08-11T12:37:51.944Z,31.80
2022-08-11T12:41:11.954Z,31.30
2022-08-11T12:43:56.320Z,31.20
2022-08-11T12:46:29.059Z,31.40
2022-08-11T12:49:17.568Z,32.10
2022-08-11T12:52:14.751Z,32.40
2022-08-11T12:54:49.842Z,32.30
2022-08-11T12:57:42.766Z,32.60
2022-08-11T13:00:30.040Z,32.90
2022-08-11T13:03:15.947Z,33.10
2022-08-11T13:05:45.146Z,32.60
2022-08-11T13:08:15.054Z,32.50
2022-08-11T13:11:02.364Z,32.70
2022-08-11T13:13:54.496Z,33.00
2022-08-11T13:16:17.791Z,33.40
2022-08-11T13:18:45.102Z,33.20
2022-08-11T13:21:20.671Z,32.90
2022-08-11T13:23:59.736Z,32.90
2022-08-11T13:26:47.426Z,32.70
2022-08-11T13:29:26.516Z,33.00
2022-08-11T13:31:56.150Z,33.80
2022-08-11T13:34:26.675Z,33.80
2022-08-11T13:37:00.261Z,33.90
2022-08-11T13:39:32.054Z,33.40
2022-08-11T13:42:01.468Z,33.30
2022-08-11T13:44:30.988Z,33.20
2022-08-11T13:47:06.543Z,33.90
2022-08-11T13:49:39.678Z,33.50
2022-08-11T13:52:12.982Z,34.40
2022-08-11T13:54:41.302Z,34.60
2022-08-11T13:57:13.781Z,34.30
2022-08-11T14:00:13.082Z,34.40
2022-08-11T14:02:56.427Z,35.20
2022-08-11T14:05:38.903Z,35.50
2022-08-11T14:08:37.568Z,36.20
2022-08-11T14:12:22.894Z,36.20
2022-08-11T14:14:18.581Z,35.00
2022-08-11T14:16:48.563Z,34.60
2022-08-11T14:19:18.457Z,33.80
2022-08-11T14:22:07.696Z,33.70
2022-08-11T14:24:38.612Z,34.10
2022-08-11T14:27:07.628Z,35.30
2022-08-11T14:29:54.440Z,36.00
2022-08-11T14:32:22.834Z,36.40
2022-08-11T14:34:53.778Z,36.60
2022-08-11T14:37:22.654Z,36.50
2022-08-11T14:40:02.846Z,37.20
2022-08-11T14:42:52.381Z,36.90
2022-08-11T14:45:57.711Z,37.30
2022-08-11T14:48:26.521Z,35.50
2022-08-11T14:50:53.483Z,34.30
2022-08-11T14:53:25.352Z,33.50
2022-08-11T14:56:14.126Z,33.20
2022-08-11T14:58:43.967Z,33.80
2022-08-11T15:01:31.051Z,34.80
2022-08-11T15:04:34.002Z,35.40
2022-08-11T15:06:51.524Z,36.80
2022-08-11T15:09:18.910Z,37.60
2022-08-11T15:12:07.430Z,38.10
2022-08-11T15:15:13.609Z,37.20
2022-08-11T15:17:43.707Z,37.20
2022-08-11T15:20:34.470Z,37.10
2022-08-11T15:23:20.802Z,36.30
2022-08-11T15:25:52.793Z,36.20
2022-08-11T15:28:40.417Z,36.40
2022-08-11T15:31:25.596Z,36.60
2022-08-11T15:34:20.880Z,36.80
2022-08-11T15:37:10.530Z,37.20
2022-08-11T15:40:32.828Z,35.70
2022-08-11T15:43:43.741Z,36.70
2022-08-11T15:46:30.673Z,36.20
2022-08-11T15:49:10.976Z,37.10
2022-08-11T15:51:57.680Z,36.00
2022-08-11T15:54:31.194Z,34.50
2022-08-11T15:57:01.796Z,33.70
2022-08-11T15:59:52.251Z,33.20
2022-08-11T16:02:41.976Z,33.60
2022-08-11T16:05:13.518Z,33.60
2022-08-11T16:07:49.088Z,34.60
2022-08-11T16:10:21.547Z,35.80
2022-08-11T16:13:22.354Z,36.30
2022-08-11T16:16:15.808Z,36.90
2022-08-11T16:18:56.440Z,35.80
2022-08-11T16:21:44.410Z,34.80
2022-08-11T16:27:02.411Z,33.10
2022-08-11T16:27:13.058Z,32.60
2022-08-11T16:29:44.912Z,32.00
2022-08-11T16:32:21.738Z,31.50
2022-08-11T16:35:13.593Z,31.30
2022-08-11T16:37:59.999Z,31.00
2022-08-11T16:40:28.942Z,30.90
2022-08-11T16:43:16.239Z,30.70
2022-08-11T16:46:02.178Z,30.70
2022-08-11T16:48:37.525Z,30.70
2022-08-11T16:51:11.306Z,30.50
2022-08-11T16:53:54.872Z,30.40
2022-08-11T16:56:43.342Z,30.20
2022-08-11T16:59:17.908Z,30.10
2022-08-11T17:01:55.789Z,29.90
2022-08-11T17:04:54.354Z,29.80
2022-08-11T17:07:50.170Z,29.70
2022-08-11T17:11:00.196Z,29.70
2022-08-11T17:14:03.099Z,29.60
2022-08-11T17:16:36.362Z,29.50
2022-08-11T17:19:14.410Z,29.40
2022-08-11T17:22:06.728Z,29.30
2022-08-11T17:24:37.155Z,29.30
2022-08-11T17:27:08.166Z,29.30
2022-08-11T17:29:53.557Z,29.30
2022-08-11T17:32:55.779Z,29.20
2022-08-11T17:35:32.654Z,29.20
2022-08-11T17:38:14.278Z,29.00
2022-08-11T17:41:06.287Z,29.00
2022-08-11T17:43:54.344Z,29.00
2022-08-11T17:46:40.006Z,28.90
2022-08-11T17:49:09.774Z,28.80
2022-08-11T17:51:57.029Z,28.60
2022-08-11T17:54:44.150Z,28.50
2022-08-11T17:57:33.610Z,28.40
2022-08-11T18:00:02.193Z,28.30
2022-08-11T18:02:57.083Z,28.30
2022-08-11T18:05:33.618Z,28.30
2022-08-11T18:08:25.450Z,28.10
2022-08-11T18:11:11.455Z,28.00
2022-08-11T18:14:04.028Z,27.90
2022-08-11T18:16:49.444Z,27.70
2022-08-11T18:19:34.874Z,27.60
2022-08-11T18:22:31.761Z,27.40
2022-08-11T18:25:35.330Z,27.20
2022-08-11T18:28:28.123Z,27.00
2022-08-11T18:31:18.472Z,26.80
2022-08-11T18:34:12.184Z,26.60
2022-08-11T18:37:21.839Z,26.40
2022-08-11T18:40:46.254Z,26.20
2022-08-11T18:43:35.471Z,26.00
2022-08-11T18:46:27.076Z,25.70
2022-08-11T18:49:26.607Z,25.50
2022-08-11T18:52:23.167Z,25.20
2022-08-11T18:55:10.458Z,24.90
2022-08-11T18:58:00.318Z,24.60
2022-08-11T19:00:46.689Z,24.40
2022-08-11T19:03:43.389Z,24.30
2022-08-11T19:06:36.018Z,24.20
2022-08-11T19:09:28.373Z,24.10
2022-08-11T19:12:15.167Z,23.90
2022-08-11T19:15:01.579Z,23.70
2022-08-11T19:17:50.084Z,23.50
2022-08-11T19:20:38.387Z,23.20
2022-08-11T19:23:27.305Z,23.00
2022-08-11T19:26:13.415Z,22.70
2022-08-11T19:29:00.940Z,22.50
2022-08-11T19:31:50.327Z,22.30
2022-08-11T19:34:38.273Z,22.10
2022-08-11T19:37:26.845Z,22.10
2022-08-11T19:40:15.587Z,22.10
2022-08-11T19:43:03.164Z,22.10
2022-08-11T19:45:52.472Z,21.90
2022-08-11T19:48:48.310Z,21.80
2022-08-11T19:51:34.418Z,21.80
2022-08-11T19:54:22.941Z,21.70
2022-08-11T19:57:09.835Z,21.60
2022-08-11T19:59:56.624Z,21.60
2022-08-11T20:02:42.044Z,21.70
2022-08-11T20:05:28.144Z,22.00
2022-08-11T20:08:15.680Z,22.40
2022-08-11T20:11:06.889Z,22.50
2022-08-11T20:13:53.815Z,22.70
2022-08-11T20:16:43.849Z,22.90
2022-08-11T20:19:55.059Z,23.00
2022-08-11T20:22:40.919Z,23.00
2022-08-11T20:25:27.483Z,23.00
2022-08-11T20:28:13.746Z,23.10
2022-08-11T20:31:02.293Z,23.10
2022-08-11T20:33:49.281Z,23.10
2022-08-11T20:36:35.767Z,23.00
2022-08-11T20:39:22.230Z,23.00
2022-08-11T20:42:08.674Z,23.00
2022-08-11T20:44:58.218Z,23.10
2022-08-11T20:47:56.393Z,23.20
2022-08-11T20:50:45.817Z,23.20
2022-08-11T20:53:35.965Z,23.20
2022-08-11T20:59:49.579Z,22.90
2022-08-11T21:02:40.669Z,22.80
2022-08-11T21:06:08.482Z,22.70
2022-08-11T21:08:36.563Z,22.60
2022-08-11T21:11:27.569Z,22.50
2022-08-11T21:14:15.427Z,22.50
2022-08-11T21:17:25.982Z,22.40
2022-08-11T21:20:20.355Z,22.30
2022-08-11T21:23:23.747Z,22.20
2022-08-11T21:26:29.785Z,22.20
2022-08-11T21:29:18.203Z,22.10
2022-08-11T21:32:04.693Z,22.10
2022-08-11T21:34:51.206Z,22.00
2022-08-11T21:37:37.700Z,21.90
2022-08-11T21:40:26.188Z,21.90
2022-08-11T21:43:13.972Z,21.90
2022-08-11T21:46:01.603Z,21.90
2022-08-11T21:48:49.366Z,21.90
2022-08-11T21:51:37.961Z,21.80
2022-08-11T21:54:36.354Z,21.70
2022-08-11T21:57:23.037Z,21.70
2022-08-11T22:00:13.943Z,21.60
2022-08-11T22:03:02.023Z,21.60
2022-08-11T22:05:50.978Z,21.50
2022-08-11T22:08:36.915Z,21.50
2022-08-11T22:11:31.690Z,21.40
2022-08-11T22:14:25.011Z,21.30
2022-08-11T22:17:10.532Z,21.30
2022-08-11T22:20:00.888Z,21.30
2022-08-11T22:22:52.923Z,21.30
2022-08-11T22:25:51.008Z,21.20
2022-08-11T22:28:37.964Z,21.10
2022-08-11T22:31:25.587Z,20.90
2022-08-11T22:34:10.750Z,20.80
2022-08-11T22:36:57.437Z,20.70
2022-08-11T22:39:44.832Z,20.50
2022-08-11T22:42:46.193Z,20.40
2022-08-11T22:45:31.966Z,20.30
2022-08-11T22:48:18.805Z,20.30
2022-08-11T22:51:04.853Z,20.30
2022-08-11T22:53:57.729Z,20.20
2022-08-11T22:56:45.522Z,20.30
2022-08-11T22:59:35.837Z,20.30
2022-08-11T23:02:25.425Z,20.30
2022-08-11T23:05:11.527Z,20.30
2022-08-11T23:07:58.238Z,20.30
2022-08-11T23:10:44.710Z,20.30
2022-08-11T23:13:30.336Z,20.30
2022-08-11T23:16:19.557Z,20.20
2022-08-11T23:19:05.418Z,20.10
2022-08-11T23:21:54.834Z,19.90
2022-08-11T23:24:42.108Z,19.90
2022-08-11T23:27:30.869Z,19.80
2022-08-11T23:30:19.041Z,19.80
2022-08-11T23:33:09.630Z,19.80
2022-08-11T23:36:03.303Z,19.80
2022-08-11T23:38:51.240Z,19.80
2022-08-11T23:41:37.058Z,19.70
2022-08-11T23:44:23.581Z,19.70
2022-08-11T23:47:11.961Z,19.60
2022-08-11T23:49:57.498Z,19.50
2022-08-11T23:52:45.910Z,19.40
2022-08-11T23:55:34.746Z,19.40
2022-08-11T23:58:20.508Z,19.30
